createdAt,value
2022-11-16T00:02:12.568Z,13.14
2022-11-16T00:04:39.210Z,13.18
2022-11-16T00:07:06.210Z,13.07
2022-11-16T00:09:32.816Z,13.16
2022-11-16T00:12:00.130Z,12.98
2022-11-16T00:14:27.651Z,13.07
2022-11-16T00:16:54.301Z,13.03
2022-11-16T00:19:20.834Z,13.03
2022-11-16T00:21:47.353Z,13.15
2022-11-16T00:24:14.743Z,13.02
2022-11-16T00:26:41.298Z,13.02
2022-11-16T00:29:10.290Z,13.09
2022-11-16T00:31:36.690Z,13.07
2022-11-16T00:34:03.513Z,12.87
2022-11-16T00:36:30.006Z,12.90
2022-11-16T00:38:56.517Z,12.95
2022-11-16T00:41:23.032Z,12.86
2022-11-16T00:43:49.486Z,12.87
2022-11-16T00:46:16.036Z,13.00
2022-11-16T00:48:42.672Z,12.87
2022-11-16T00:51:09.418Z,12.96
2022-11-16T00:53:35.888Z,12.76
2022-11-16T00:56:02.387Z,12.65
2022-11-16T00:58:31.396Z,12.88
2022-11-16T01:01:07.633Z,12.89
2022-11-16T01:03:37.425Z,12.89
2022-11-16T01:06:04.646Z,12.80
2022-11-16T01:08:31.669Z,12.99
2022-11-16T01:11:18.573Z,12.82
2022-11-16T01:13:44.954Z,12.78
2022-11-16T01:16:14.494Z,12.84
2022-11-16T01:18:40.914Z,12.92
2022-11-16T01:21:08.939Z,12.89
2022-11-16T01:23:35.840Z,12.91
2022-11-16T01:26:02.505Z,12.83
2022-11-16T01:28:32.487Z,12.79
2022-11-16T01:30:59.975Z,12.79
2022-11-16T01:33:26.699Z,12.81
2022-11-16T01:35:53.222Z,12.64
2022-11-16T01:38:19.818Z,12.41
2022-11-16T01:40:46.207Z,12.22
2022-11-16T01:43:19.669Z,12.44
2022-11-16T01:45:47.230Z,12.49
2022-11-16T01:48:15.287Z,12.68
2022-11-16T01:50:42.161Z,12.76
2022-11-16T01:53:08.980Z,12.71
2022-11-16T01:55:43.962Z,12.68
2022-11-16T01:58:17.485Z,12.62
2022-11-16T02:00:45.737Z,12.70
2022-11-16T02:03:32.427Z,12.72
2022-11-16T02:06:05.543Z,12.74
2022-11-16T02:08:55.534Z,12.68
2022-11-16T02:11:28.751Z,12.69
2022-11-16T02:13:55.634Z,12.79
2022-11-16T02:16:42.341Z,12.76
2022-11-16T02:19:16.124Z,12.81
2022-11-16T02:21:51.699Z,12.66
2022-11-16T02:24:21.121Z,12.65
2022-11-16T02:26:53.985Z,12.78
2022-11-16T02:29:34.284Z,12.60
2022-11-16T02:32:02.387Z,12.65
2022-11-16T02:34:30.740Z,12.59
2022-11-16T02:36:57.216Z,12.57
2022-11-16T02:39:24.815Z,12.65
2022-11-16T02:41:51.314Z,12.65
2022-11-16T02:44:19.199Z,12.47
2022-11-16T02:46:48.977Z,12.31
2022-11-16T02:49:17.510Z,12.42
2022-11-16T02:51:45.047Z,12.49
2022-11-16T02:54:13.048Z,12.57
2022-11-16T02:56:43.336Z,12.57
2022-11-16T02:59:13.112Z,12.48
2022-11-16T03:02:03.497Z,12.51
2022-11-16T03:04:34.990Z,12.58
2022-11-16T03:07:02.176Z,12.50
2022-11-16T03:09:29.521Z,12.50
2022-11-16T03:11:59.677Z,12.63
2022-11-16T03:14:29.665Z,12.60
2022-11-16T03:16:56.999Z,12.61
2022-11-16T03:19:25.859Z,12.65
2022-11-16T03:21:55.873Z,12.64
2022-11-16T03:24:23.230Z,12.70
2022-11-16T03:26:54.923Z,12.58
2022-11-16T03:29:26.883Z,12.54
2022-11-16T03:31:56.079Z,12.72
2022-11-16T03:34:22.821Z,12.74
2022-11-16T03:36:49.805Z,12.78
2022-11-16T03:39:19.365Z,12.80
2022-11-16T03:41:46.275Z,12.76
2022-11-16T03:44:12.754Z,12.81
2022-11-16T03:46:40.146Z,12.78
2022-11-16T03:49:08.141Z,12.87
2022-11-16T03:51:36.587Z,12.75
2022-11-16T03:54:03.708Z,12.90
2022-11-16T03:56:30.939Z,12.95
2022-11-16T03:58:57.345Z,12.93
2022-11-16T04:01:23.833Z,12.79
2022-11-16T04:03:50.572Z,12.88
2022-11-16T04:06:37.542Z,12.80
2022-11-16T04:09:23.573Z,12.79
2022-11-16T04:12:08.880Z,12.88
2022-11-16T04:14:55.895Z,12.87
2022-11-16T04:17:44.359Z,12.95
2022-11-16T04:20:31.409Z,12.77
2022-11-16T04:23:16.528Z,12.81
2022-11-16T04:25:43.021Z,12.88
2022-11-16T04:28:16.545Z,12.82
2022-11-16T04:31:14.308Z,12.90
2022-11-16T04:34:04.375Z,12.88
2022-11-16T04:36:50.258Z,12.99
2022-11-16T04:39:16.725Z,12.94
2022-11-16T04:42:03.818Z,12.81
2022-11-16T04:44:52.923Z,12.74
2022-11-16T04:47:19.546Z,12.94
2022-11-16T04:49:47.358Z,12.80
2022-11-16T04:52:13.727Z,13.05
2022-11-16T04:54:40.580Z,13.05
2022-11-16T04:57:08.185Z,13.07
2022-11-16T04:59:35.064Z,12.93
2022-11-16T05:02:08.064Z,12.96
2022-11-16T05:04:41.375Z,12.93
2022-11-16T05:07:11.852Z,12.93
2022-11-16T05:09:42.602Z,12.87
2022-11-16T05:12:11.896Z,12.81
2022-11-16T05:14:38.339Z,12.93
2022-11-16T05:17:04.827Z,12.99
2022-11-16T05:19:50.699Z,13.02
2022-11-16T05:22:17.406Z,12.80
2022-11-16T05:24:44.037Z,13.04
2022-11-16T05:27:11.482Z,12.98
2022-11-16T05:29:38.948Z,12.90
2022-11-16T05:32:05.879Z,12.79
2022-11-16T05:34:32.383Z,12.91
2022-11-16T05:36:59.639Z,12.99
2022-11-16T05:39:26.326Z,13.16
2022-11-16T05:41:53.717Z,13.00
2022-11-16T05:44:20.481Z,12.82
2022-11-16T05:46:47.254Z,12.77
2022-11-16T05:49:15.621Z,12.72
2022-11-16T05:51:42.665Z,12.74
2022-11-16T05:54:11.174Z,12.78
2022-11-16T05:56:37.758Z,12.69
2022-11-16T05:59:04.212Z,12.67
2022-11-16T06:01:30.743Z,12.73
2022-11-16T06:04:01.015Z,12.75
2022-11-16T06:06:28.639Z,12.79
2022-11-16T06:08:56.063Z,12.65
2022-11-16T06:11:26.486Z,12.59
2022-11-16T06:13:54.778Z,12.67
2022-11-16T06:16:21.184Z,12.53
2022-11-16T06:18:48.043Z,12.47
2022-11-16T06:21:16.383Z,12.45
2022-11-16T06:23:43.225Z,12.35
2022-11-16T06:26:10.373Z,12.45
2022-11-16T06:28:37.505Z,12.50
2022-11-16T06:31:04.602Z,12.56
2022-11-16T06:33:35.219Z,12.65
2022-11-16T06:36:05.509Z,12.69
2022-11-16T06:38:32.599Z,12.76
2022-11-16T06:40:59.830Z,12.73
2022-11-16T06:43:28.559Z,12.68
2022-11-16T06:45:56.147Z,12.59
2022-11-16T06:48:22.681Z,12.86
2022-11-16T06:50:50.336Z,12.94
2022-11-16T06:53:18.811Z,12.82
2022-11-16T06:55:46.714Z,12.88
2022-11-16T06:58:13.358Z,12.81
2022-11-16T07:00:41.719Z,12.88
2022-11-16T07:03:09.889Z,12.89
2022-11-16T07:05:39.155Z,12.79
2022-11-16T07:08:09.200Z,12.81
2022-11-16T07:10:36.153Z,12.90
2022-11-16T07:13:03.974Z,12.92
2022-11-16T07:15:30.931Z,12.93
2022-11-16T07:17:57.552Z,12.99
2022-11-16T07:20:24.174Z,12.99
2022-11-16T07:22:50.741Z,12.85
2022-11-16T07:25:17.889Z,12.86
2022-11-16T07:27:44.357Z,12.90
2022-11-16T07:30:11.556Z,13.01
2022-11-16T07:32:39.865Z,13.02
2022-11-16T07:35:32.498Z,13.04
2022-11-16T07:38:00.842Z,13.07
2022-11-16T07:40:27.291Z,13.08
2022-11-16T07:42:56.962Z,13.04
2022-11-16T07:45:32.157Z,13.08
2022-11-16T07:48:04.876Z,13.09
2022-11-16T07:50:49.975Z,13.09
2022-11-16T07:53:17.709Z,13.26
2022-11-16T07:55:44.284Z,13.25
2022-11-16T07:58:10.868Z,13.33
2022-11-16T08:00:37.879Z,13.52
2022-11-16T08:03:12.988Z,13.71
2022-11-16T08:05:39.472Z,13.73
2022-11-16T08:08:06.959Z,13.65
2022-11-16T08:10:36.645Z,13.76
2022-11-16T08:13:03.565Z,13.79
2022-11-16T08:15:29.982Z,13.81
2022-11-16T08:17:59.276Z,13.82
2022-11-16T08:20:27.498Z,13.87
2022-11-16T08:22:58.302Z,13.92
2022-11-16T08:25:25.524Z,13.80
2022-11-16T08:27:52.032Z,13.41
2022-11-16T08:30:20.307Z,13.53
2022-11-16T08:32:46.808Z,13.59
2022-11-16T08:35:15.025Z,13.68
2022-11-16T08:37:42.788Z,13.86
2022-11-16T08:40:09.774Z,13.81
2022-11-16T08:42:43.337Z,13.85
2022-11-16T08:45:10.625Z,13.94
2022-11-16T08:47:37.076Z,14.07
2022-11-16T08:50:04.938Z,14.12
2022-11-16T08:52:32.212Z,14.18
2022-11-16T08:55:00.230Z,14.28
2022-11-16T08:57:27.019Z,14.33
2022-11-16T08:59:57.495Z,14.13
2022-11-16T09:02:25.626Z,14.22
2022-11-16T09:04:53.051Z,14.36
2022-11-16T09:07:19.690Z,14.25
2022-11-16T09:09:46.466Z,14.23
2022-11-16T09:12:12.979Z,14.20
2022-11-16T09:14:39.693Z,14.31
2022-11-16T09:17:06.113Z,14.21
2022-11-16T09:19:32.651Z,14.40
2022-11-16T09:21:59.458Z,14.18
2022-11-16T09:24:26.014Z,14.20
2022-11-16T09:26:52.519Z,14.13
2022-11-16T09:29:18.959Z,14.12
2022-11-16T09:31:45.685Z,14.08
2022-11-16T09:34:12.234Z,14.11
2022-11-16T09:36:38.649Z,14.00
2022-11-16T09:42:10.786Z,13.95
2022-11-16T09:44:37.873Z,13.63
2022-11-16T09:47:05.027Z,13.80
2022-11-16T09:49:33.569Z,13.99
2022-11-16T09:52:00.722Z,14.05
2022-11-16T09:54:27.862Z,13.89
2022-11-16T09:56:57.565Z,13.96
2022-11-16T09:59:28.933Z,13.96
2022-11-16T10:02:19.214Z,13.97
2022-11-16T10:05:06.043Z,13.96
2022-11-16T10:07:37.493Z,14.17
2022-11-16T10:10:04.515Z,14.17
2022-11-16T10:12:38.553Z,14.45
2022-11-16T10:15:17.671Z,14.34
2022-11-16T10:17:54.393Z,14.55
2022-11-16T10:20:31.500Z,14.50
2022-11-16T10:23:01.311Z,14.65
2022-11-16T10:25:44.944Z,14.56
2022-11-16T10:28:22.663Z,14.71
2022-11-16T10:31:00.244Z,14.78
2022-11-16T10:33:26.726Z,15.00
2022-11-16T10:35:54.002Z,15.06
2022-11-16T10:38:21.853Z,15.13
2022-11-16T10:40:58.109Z,15.22
2022-11-16T10:43:24.954Z,15.27
2022-11-16T10:46:03.327Z,15.24
2022-11-16T10:48:37.188Z,15.23
2022-11-16T10:51:04.180Z,15.18
2022-11-16T10:53:34.355Z,15.08
2022-11-16T10:56:01.592Z,15.30
2022-11-16T10:58:30.095Z,15.39
2022-11-16T11:00:56.565Z,15.62
2022-11-16T11:03:30.042Z,15.51
2022-11-16T11:05:56.584Z,15.55
2022-11-16T11:08:32.554Z,15.40
2022-11-16T11:11:23.675Z,15.33
2022-11-16T11:14:11.250Z,15.22
2022-11-16T11:16:38.108Z,15.08
2022-11-16T11:19:16.937Z,15.23
2022-11-16T11:21:43.311Z,15.20
2022-11-16T11:24:42.952Z,15.09
2022-11-16T11:27:00.187Z,15.10
2022-11-16T11:29:30.742Z,15.13
2022-11-16T11:31:58.068Z,15.23
2022-11-16T11:34:28.428Z,15.26
2022-11-16T11:36:54.794Z,15.17
2022-11-16T11:39:21.306Z,15.17
2022-11-16T11:41:59.963Z,15.21
2022-11-16T11:44:36.347Z,15.10
2022-11-16T11:47:55.756Z,15.02
2022-11-16T11:50:07.532Z,14.79
2022-11-16T11:53:12.768Z,14.72
2022-11-16T11:55:39.684Z,14.59
2022-11-16T11:58:06.455Z,14.48
2022-11-16T12:00:36.721Z,14.61
2022-11-16T12:03:04.132Z,14.59
2022-11-16T12:05:35.176Z,14.62
2022-11-16T12:08:24.723Z,14.46
2022-11-16T12:10:55.658Z,14.34
2022-11-16T12:13:40.994Z,14.63
2022-11-16T12:16:27.305Z,14.45
2022-11-16T12:18:59.495Z,14.51
2022-11-16T12:21:25.859Z,14.57
2022-11-16T12:24:11.293Z,14.71
2022-11-16T12:26:57.757Z,15.04
2022-11-16T12:29:24.153Z,15.26
2022-11-16T12:31:53.476Z,15.34
2022-11-16T12:34:20.148Z,15.63
2022-11-16T12:36:55.742Z,15.82
2022-11-16T12:39:48.532Z,15.95
2022-11-16T12:42:35.256Z,15.83
2022-11-16T12:45:20.591Z,16.02
2022-11-16T12:47:59.499Z,16.06
2022-11-16T12:50:26.070Z,16.03
2022-11-16T12:53:06.210Z,16.12
2022-11-16T12:55:51.739Z,16.24
2022-11-16T12:58:27.331Z,16.29
2022-11-16T13:01:04.176Z,16.32
2022-11-16T13:03:37.031Z,16.38
2022-11-16T13:06:04.912Z,16.15
2022-11-16T13:08:50.096Z,16.06
2022-11-16T13:11:27.224Z,16.04
2022-11-16T13:13:56.562Z,15.92
2022-11-16T13:16:23.743Z,15.88
2022-11-16T13:18:50.137Z,15.90
2022-11-16T13:21:19.680Z,15.84
2022-11-16T13:23:49.770Z,15.88
2022-11-16T13:26:20.365Z,16.01
2022-11-16T13:28:46.863Z,16.08
2022-11-16T13:31:20.647Z,16.13
2022-11-16T13:33:51.333Z,16.18
2022-11-16T13:36:37.188Z,16.11
2022-11-16T13:39:04.495Z,16.11
2022-11-16T13:41:37.649Z,16.12
2022-11-16T13:44:04.859Z,16.01
2022-11-16T13:46:55.173Z,15.72
2022-11-16T13:49:30.947Z,15.42
2022-11-16T13:52:06.998Z,15.30
2022-11-16T13:54:46.451Z,15.14
2022-11-16T13:57:23.027Z,15.24
2022-11-16T13:59:50.417Z,15.26
2022-11-16T14:02:31.574Z,15.31
2022-11-16T14:04:59.345Z,15.19
2022-11-16T14:07:34.052Z,15.23
2022-11-16T14:10:01.126Z,15.33
2022-11-16T14:12:46.578Z,15.43
2022-11-16T14:15:12.986Z,15.42
2022-11-16T14:17:57.622Z,15.41
2022-11-16T14:20:44.448Z,15.31
2022-11-16T14:23:20.819Z,15.25
2022-11-16T14:25:47.568Z,15.34
2022-11-16T14:28:35.195Z,15.32
2022-11-16T14:31:21.532Z,15.31
2022-11-16T14:33:52.723Z,15.36
2022-11-16T14:36:32.182Z,15.10
2022-11-16T14:38:59.442Z,15.02
2022-11-16T14:41:26.020Z,14.88
2022-11-16T14:43:53.717Z,14.90
2022-11-16T14:46:26.113Z,14.85
2022-11-16T14:48:56.331Z,14.85
2022-11-16T14:51:35.594Z,15.08
2022-11-16T14:54:03.830Z,14.88
2022-11-16T14:56:30.201Z,14.78
2022-11-16T14:59:00.805Z,14.53
2022-11-16T15:01:28.083Z,14.31
2022-11-16T15:03:54.681Z,14.25
2022-11-16T15:06:21.328Z,14.14
2022-11-16T15:08:55.230Z,14.19
2022-11-16T15:11:50.181Z,13.98
2022-11-16T15:14:20.272Z,13.86
2022-11-16T15:16:51.215Z,13.87
2022-11-16T15:19:17.685Z,13.76
2022-11-16T15:21:54.271Z,13.71
2022-11-16T15:24:30.414Z,13.75
2022-11-16T15:27:10.527Z,13.76
2022-11-16T15:29:36.990Z,13.84
2022-11-16T15:32:03.571Z,13.82
2022-11-16T15:34:29.954Z,13.85
2022-11-16T15:36:56.370Z,13.80
2022-11-16T15:39:23.322Z,13.83
2022-11-16T15:41:50.201Z,13.87
2022-11-16T15:44:17.845Z,13.86
2022-11-16T15:46:46.052Z,13.83
2022-11-16T15:49:17.591Z,13.84
2022-11-16T15:51:44.380Z,13.87
2022-11-16T15:54:14.822Z,13.80
2022-11-16T15:56:41.319Z,13.81
2022-11-16T15:59:11.792Z,13.75
2022-11-16T16:01:41.977Z,13.83
2022-11-16T16:04:08.623Z,13.77
2022-11-16T16:06:45.930Z,13.76
2022-11-16T16:09:18.102Z,13.78
2022-11-16T16:11:44.508Z,13.76
2022-11-16T16:14:10.942Z,13.69
2022-11-16T16:16:37.572Z,13.66
2022-11-16T16:19:43.017Z,13.53
2022-11-16T16:22:13.770Z,13.49
2022-11-16T16:24:44.177Z,13.42
2022-11-16T16:27:20.908Z,13.36
2022-11-16T16:29:48.753Z,13.28
2022-11-16T16:32:21.115Z,13.21
2022-11-16T16:34:48.090Z,13.11
2022-11-16T16:37:17.466Z,13.32
2022-11-16T16:39:44.325Z,13.16
2022-11-16T16:42:14.939Z,12.98
2022-11-16T16:44:41.878Z,12.82
2022-11-16T16:47:08.540Z,12.67
2022-11-16T16:49:35.301Z,12.73
2022-11-16T16:52:01.930Z,12.65
2022-11-16T16:54:28.636Z,12.54
2022-11-16T16:56:55.857Z,12.50
2022-11-16T16:59:22.336Z,12.47
2022-11-16T17:01:49.136Z,12.50
2022-11-16T17:04:15.720Z,12.52
2022-11-16T17:06:46.466Z,12.55
2022-11-16T17:09:13.182Z,12.44
2022-11-16T17:11:39.573Z,12.45
2022-11-16T17:14:07.755Z,12.38
2022-11-16T17:16:34.613Z,12.37
2022-11-16T17:19:01.147Z,12.60
2022-11-16T17:21:28.017Z,12.62
2022-11-16T17:23:54.578Z,12.58
2022-11-16T17:26:21.704Z,12.46
2022-11-16T17:28:48.224Z,12.38
2022-11-16T17:31:14.801Z,12.38
2022-11-16T17:33:41.738Z,12.22
2022-11-16T17:36:10.018Z,12.36
2022-11-16T17:38:36.551Z,12.28
2022-11-16T17:41:04.122Z,12.20
2022-11-16T17:43:30.518Z,12.07
2022-11-16T17:46:03.921Z,12.00
2022-11-16T17:48:30.340Z,11.97
2022-11-16T17:50:56.703Z,11.92
2022-11-16T17:53:24.487Z,12.00
2022-11-16T17:55:52.674Z,12.02
2022-11-16T17:58:19.027Z,12.07
2022-11-16T18:00:46.416Z,12.07
2022-11-16T18:03:12.967Z,12.13
2022-11-16T18:05:39.354Z,12.23
2022-11-16T18:08:05.826Z,12.33
2022-11-16T18:10:32.778Z,12.25
2022-11-16T18:12:59.273Z,12.31
2022-11-16T18:15:29.353Z,12.27
2022-11-16T18:17:56.713Z,12.19
2022-11-16T18:20:24.269Z,12.23
2022-11-16T18:22:50.658Z,12.38
2022-11-16T18:25:17.258Z,12.20
2022-11-16T18:27:43.773Z,12.26
2022-11-16T18:30:10.581Z,12.25
2022-11-16T18:32:37.213Z,12.24
2022-11-16T18:35:09.959Z,12.24
2022-11-16T18:37:36.459Z,12.19
2022-11-16T18:40:03.639Z,12.21
2022-11-16T18:42:30.197Z,12.23
2022-11-16T18:44:56.583Z,12.28
2022-11-16T18:47:22.962Z,12.26
2022-11-16T18:49:49.335Z,12.29
2022-11-16T18:52:15.749Z,12.31
2022-11-16T18:54:42.305Z,12.22
2022-11-16T18:57:15.151Z,12.16
2022-11-16T18:59:41.783Z,12.24
2022-11-16T19:02:10.984Z,12.07
2022-11-16T19:04:39.945Z,12.03
2022-11-16T19:07:07.005Z,11.94
2022-11-16T19:09:33.454Z,11.90
2022-11-16T19:11:59.820Z,11.77
2022-11-16T19:14:26.271Z,11.73
2022-11-16T19:16:56.883Z,11.73
2022-11-16T19:19:24.277Z,11.83
2022-11-16T19:21:51.862Z,11.62
2022-11-16T19:24:18.256Z,11.59
2022-11-16T19:26:44.815Z,11.44
2022-11-16T19:29:11.175Z,11.47
2022-11-16T19:31:37.626Z,11.39
2022-11-16T19:34:06.001Z,11.26
2022-11-16T19:36:33.102Z,11.28
2022-11-16T19:38:59.510Z,11.25
2022-11-16T19:41:26.260Z,11.16
2022-11-16T19:43:57.218Z,11.05
2022-11-16T19:46:24.744Z,11.17
2022-11-16T19:48:52.222Z,11.11
2022-11-16T19:51:22.388Z,11.16
2022-11-16T19:53:49.141Z,11.17
2022-11-16T19:56:18.299Z,10.99
2022-11-16T19:58:45.293Z,10.92
2022-11-16T20:01:14.422Z,11.02
2022-11-16T20:03:42.103Z,10.89
2022-11-16T20:06:16.186Z,10.81
2022-11-16T20:08:46.501Z,10.79
2022-11-16T20:11:20.200Z,10.59
2022-11-16T20:13:51.280Z,10.50
2022-11-16T20:16:20.038Z,10.44
2022-11-16T20:18:46.739Z,10.67
2022-11-16T20:21:28.980Z,10.71
2022-11-16T20:24:01.553Z,10.72
2022-11-16T20:26:33.425Z,10.67
2022-11-16T20:28:59.964Z,10.56
2022-11-16T20:31:28.538Z,10.41
2022-11-16T20:33:57.582Z,10.41
2022-11-16T20:36:27.040Z,10.31
2022-11-16T20:38:53.606Z,10.37
2022-11-16T20:41:24.810Z,10.36
2022-11-16T20:43:53.161Z,10.34
2022-11-16T20:46:22.029Z,10.30
2022-11-16T20:48:48.841Z,10.34
2022-11-16T20:51:17.487Z,10.61
2022-11-16T20:53:45.270Z,10.58
2022-11-16T20:56:12.517Z,10.57
2022-11-16T20:58:39.435Z,10.62
2022-11-16T21:01:08.381Z,10.73
2022-11-16T21:03:35.420Z,10.63
2022-11-16T21:06:02.287Z,10.72
2022-11-16T21:08:31.609Z,10.64
2022-11-16T21:10:58.953Z,10.70
2022-11-16T21:13:44.010Z,10.51
2022-11-16T21:16:13.072Z,10.51
2022-11-16T21:18:41.158Z,10.61
2022-11-16T21:21:13.599Z,10.51
2022-11-16T21:23:43.116Z,10.41
2022-11-16T21:26:14.078Z,10.19
2022-11-16T21:28:44.656Z,10.16
2022-11-16T21:31:13.837Z,10.18
2022-11-16T21:33:40.667Z,10.21
2022-11-16T21:36:12.256Z,10.35
2022-11-16T21:38:39.211Z,10.45
2022-11-16T21:41:06.602Z,10.55
2022-11-16T21:43:36.251Z,10.44
2022-11-16T21:46:08.002Z,10.34
2022-11-16T21:48:35.423Z,10.33
2022-11-16T21:51:03.808Z,10.35
2022-11-16T21:53:30.664Z,10.31
2022-11-16T21:55:57.561Z,10.34
2022-11-16T21:58:24.600Z,10.37
2022-11-16T22:00:59.883Z,10.36
2022-11-16T22:03:29.165Z,10.40
2022-11-16T22:06:17.069Z,10.42
2022-11-16T22:08:44.272Z,10.49
2022-11-16T22:11:11.538Z,10.55
2022-11-16T22:13:38.596Z,10.73
2022-11-16T22:16:10.233Z,10.80
2022-11-16T22:18:37.373Z,10.72
2022-11-16T22:21:04.683Z,10.81
2022-11-16T22:23:31.493Z,10.65
2022-11-16T22:26:03.874Z,10.38
2022-11-16T22:28:30.858Z,10.43
2022-11-16T22:31:14.731Z,10.52
2022-11-16T22:33:41.743Z,10.51
2022-11-16T22:36:11.519Z,10.52
2022-11-16T22:38:38.213Z,10.51
2022-11-16T22:41:04.958Z,10.56
2022-11-16T22:43:32.671Z,10.46
2022-11-16T22:46:01.032Z,10.38
2022-11-16T22:48:35.955Z,10.41
2022-11-16T22:51:03.572Z,10.49
2022-11-16T22:53:30.135Z,10.54
2022-11-16T22:56:03.464Z,10.54
2022-11-16T22:58:29.980Z,10.58
2022-11-16T23:00:56.645Z,10.65
2022-11-16T23:03:23.160Z,10.66
2022-11-16T23:05:50.213Z,10.71
2022-11-16T23:08:16.886Z,10.68
2022-11-16T23:11:02.533Z,10.83
2022-11-16T23:13:47.697Z,10.88
2022-11-16T23:16:14.373Z,10.83
2022-11-16T23:18:40.899Z,10.85
2022-11-16T23:21:25.834Z,10.85
2022-11-16T23:24:10.968Z,10.92
2022-11-16T23:26:56.795Z,10.89
2022-11-16T23:29:23.399Z,11.09
2022-11-16T23:31:49.912Z,11.19
2022-11-16T23:34:16.760Z,11.17
2022-11-16T23:36:43.434Z,11.26
2022-11-16T23:39:11.188Z,11.28
2022-11-16T23:41:56.265Z,11.30
2022-11-16T23:44:22.788Z,11.24
2022-11-16T23:46:49.372Z,11.25
2022-11-16T23:49:15.952Z,11.20
2022-11-16T23:51:42.492Z,11.20
2022-11-16T23:54:09.019Z,11.16
2022-11-16T23:56:35.630Z,11.12
2022-11-16T23:59:02.230Z,11.04
